sensor_id;sensor_type;location;lat;lon;timestamp;P1;durP1;ratioP1;P2;durP2;ratioP2
4857;SDS011;58975;51.978;8.472;2023-08-06T00:03:33;4.03;;;3.30;;
4857;SDS011;58975;51.978;8.472;2023-08-06T00:08:30;4.28;;;3.35;;
4857;SDS011;58975;51.978;8.472;2023-08-06T00:13:26;4.53;;;2.78;;
4857;SDS011;58975;51.978;8.472;2023-08-06T00:18:22;5.07;;;3.10;;
4857;SDS011;58975;51.978;8.472;2023-08-06T00:23:19;8.00;;;3.05;;
4857;SDS011;58975;51.978;8.472;2023-08-06T00:28:17;8.68;;;3.28;;
4857;SDS011;58975;51.978;8.472;2023-08-06T00:33:14;2.70;;;2.45;;
4857;SDS011;58975;51.978;8.472;2023-08-06T00:38:10;8.32;;;3.00;;
4857;SDS011;58975;51.978;8.472;2023-08-06T00:43:07;4.22;;;3.25;;
4857;SDS011;58975;51.978;8.472;2023-08-06T00:48:03;3.05;;;2.63;;
4857;SDS011;58975;51.978;8.472;2023-08-06T00:53:02;3.40;;;2.80;;
4857;SDS011;58975;51.978;8.472;2023-08-06T00:57:58;3.10;;;2.80;;
4857;SDS011;58975;51.978;8.472;2023-08-06T01:02:55;5.05;;;2.95;;
4857;SDS011;58975;51.978;8.472;2023-08-06T01:08:08;2.83;;;2.53;;
4857;SDS011;58975;51.978;8.472;2023-08-06T01:18:19;4.90;;;2.65;;
4857;SDS011;58975;51.978;8.472;2023-08-06T01:23:16;5.45;;;2.50;;
4857;SDS011;58975;51.978;8.472;2023-08-06T01:28:24;3.05;;;2.75;;
4857;SDS011;58975;51.978;8.472;2023-08-06T01:33:29;3.42;;;2.88;;
4857;SDS011;58975;51.978;8.472;2023-08-06T01:38:28;5.68;;;2.83;;
4857;SDS011;58975;51.978;8.472;2023-08-06T01:43:25;3.33;;;2.45;;
4857;SDS011;58975;51.978;8.472;2023-08-06T01:48:21;4.32;;;2.42;;
4857;SDS011;58975;51.978;8.472;2023-08-06T01:53:17;5.20;;;2.60;;
4857;SDS011;58975;51.978;8.472;2023-08-06T01:58:14;4.03;;;2.72;;
4857;SDS011;58975;51.978;8.472;2023-08-06T02:03:10;6.50;;;2.65;;
4857;SDS011;58975;51.978;8.472;2023-08-06T02:08:07;2.70;;;2.45;;
4857;SDS011;58975;51.978;8.472;2023-08-06T02:13:03;5.05;;;3.38;;
4857;SDS011;58975;51.978;8.472;2023-08-06T02:18:00;5.68;;;2.65;;
4857;SDS011;58975;51.978;8.472;2023-08-06T02:22:56;6.90;;;2.83;;
4857;SDS011;58975;51.978;8.472;2023-08-06T02:27:52;3.30;;;2.72;;
4857;SDS011;58975;51.978;8.472;2023-08-06T02:32:49;4.50;;;3.08;;
4857;SDS011;58975;51.978;8.472;2023-08-06T02:37:45;2.95;;;2.58;;
4857;SDS011;58975;51.978;8.472;2023-08-06T02:42:42;9.25;;;4.50;;
4857;SDS011;58975;51.978;8.472;2023-08-06T02:47:38;4.15;;;3.08;;
4857;SDS011;58975;51.978;8.472;2023-08-06T02:52:35;4.93;;;2.83;;
4857;SDS011;58975;51.978;8.472;2023-08-06T02:57:31;6.03;;;2.25;;
4857;SDS011;58975;51.978;8.472;2023-08-06T03:02:28;3.85;;;2.50;;
4857;SDS011;58975;51.978;8.472;2023-08-06T03:07:24;7.22;;;3.60;;
4857;SDS011;58975;51.978;8.472;2023-08-06T03:12:20;4.20;;;2.75;;
4857;SDS011;58975;51.978;8.472;2023-08-06T03:17:17;3.30;;;2.60;;
4857;SDS011;58975;51.978;8.472;2023-08-06T03:22:13;2.65;;;2.45;;
4857;SDS011;58975;51.978;8.472;2023-08-06T03:27:10;2.85;;;2.50;;
4857;SDS011;58975;51.978;8.472;2023-08-06T03:32:06;2.92;;;2.60;;
4857;SDS011;58975;51.978;8.472;2023-08-06T03:37:03;3.25;;;2.53;;
4857;SDS011;58975;51.978;8.472;2023-08-06T03:42:00;4.90;;;2.30;;
4857;SDS011;58975;51.978;8.472;2023-08-06T03:46:56;3.33;;;2.78;;
4857;SDS011;58975;51.978;8.472;2023-08-06T03:51:53;3.17;;;2.88;;
4857;SDS011;58975;51.978;8.472;2023-08-06T03:56:49;2.83;;;2.35;;
4857;SDS011;58975;51.978;8.472;2023-08-06T04:01:46;4.70;;;2.65;;
4857;SDS011;58975;51.978;8.472;2023-08-06T04:06:42;8.02;;;3.13;;
4857;SDS011;58975;51.978;8.472;2023-08-06T04:11:39;3.45;;;2.75;;
4857;SDS011;58975;51.978;8.472;2023-08-06T04:16:35;7.38;;;2.70;;
4857;SDS011;58975;51.978;8.472;2023-08-06T04:21:32;3.35;;;2.58;;
4857;SDS011;58975;51.978;8.472;2023-08-06T04:26:28;6.97;;;3.08;;
4857;SDS011;58975;51.978;8.472;2023-08-06T04:31:25;5.20;;;2.83;;
4857;SDS011;58975;51.978;8.472;2023-08-06T04:36:21;4.13;;;3.40;;
4857;SDS011;58975;51.978;8.472;2023-08-06T04:41:18;9.13;;;3.97;;
4857;SDS011;58975;51.978;8.472;2023-08-06T04:46:14;3.65;;;3.10;;
4857;SDS011;58975;51.978;8.472;2023-08-06T04:51:11;5.60;;;3.58;;
4857;SDS011;58975;51.978;8.472;2023-08-06T04:56:07;4.18;;;3.25;;
4857;SDS011;58975;51.978;8.472;2023-08-06T05:01:03;3.53;;;3.17;;
4857;SDS011;58975;51.978;8.472;2023-08-06T05:06:00;6.07;;;3.40;;
4857;SDS011;58975;51.978;8.472;2023-08-06T05:10:56;4.75;;;3.25;;
4857;SDS011;58975;51.978;8.472;2023-08-06T05:15:53;3.90;;;3.40;;
4857;SDS011;58975;51.978;8.472;2023-08-06T05:20:50;3.55;;;3.25;;
4857;SDS011;58975;51.978;8.472;2023-08-06T05:25:46;6.57;;;3.60;;
4857;SDS011;58975;51.978;8.472;2023-08-06T05:30:43;6.88;;;3.42;;
4857;SDS011;58975;51.978;8.472;2023-08-06T05:35:40;3.47;;;3.05;;
4857;SDS011;58975;51.978;8.472;2023-08-06T05:40:37;5.90;;;3.50;;
4857;SDS011;58975;51.978;8.472;2023-08-06T05:45:34;3.65;;;2.95;;
4857;SDS011;58975;51.978;8.472;2023-08-06T05:50:30;3.00;;;2.63;;
4857;SDS011;58975;51.978;8.472;2023-08-06T05:55:27;4.22;;;3.10;;
4857;SDS011;58975;51.978;8.472;2023-08-06T06:00:23;3.50;;;2.63;;
4857;SDS011;58975;51.978;8.472;2023-08-06T06:05:20;3.85;;;2.53;;
4857;SDS011;58975;51.978;8.472;2023-08-06T06:10:17;2.50;;;2.30;;
4857;SDS011;58975;51.978;8.472;2023-08-06T06:15:13;2.70;;;2.42;;
4857;SDS011;58975;51.978;8.472;2023-08-06T06:20:10;2.70;;;2.40;;
4857;SDS011;58975;51.978;8.472;2023-08-06T06:25:06;2.40;;;2.20;;
4857;SDS011;58975;51.978;8.472;2023-08-06T06:30:03;7.43;;;2.30;;
4857;SDS011;58975;51.978;8.472;2023-08-06T06:35:00;3.03;;;2.30;;
4857;SDS011;58975;51.978;8.472;2023-08-06T06:39:57;6.03;;;2.60;;
4857;SDS011;58975;51.978;8.472;2023-08-06T06:44:53;4.95;;;2.45;;
4857;SDS011;58975;51.978;8.472;2023-08-06T06:49:49;3.08;;;2.78;;
4857;SDS011;58975;51.978;8.472;2023-08-06T06:54:46;3.78;;;2.42;;
4857;SDS011;58975;51.978;8.472;2023-08-06T06:59:42;2.63;;;2.20;;
4857;SDS011;58975;51.978;8.472;2023-08-06T07:04:39;6.38;;;2.47;;
4857;SDS011;58975;51.978;8.472;2023-08-06T07:09:35;4.13;;;2.83;;
4857;SDS011;58975;51.978;8.472;2023-08-06T07:14:32;3.65;;;2.50;;
4857;SDS011;58975;51.978;8.472;2023-08-06T07:19:28;4.10;;;2.40;;
4857;SDS011;58975;51.978;8.472;2023-08-06T07:24:25;4.47;;;2.58;;
4857;SDS011;58975;51.978;8.472;2023-08-06T07:29:21;2.25;;;1.95;;
4857;SDS011;58975;51.978;8.472;2023-08-06T07:34:18;4.27;;;1.90;;
4857;SDS011;58975;51.978;8.472;2023-08-06T07:39:15;3.22;;;2.30;;
4857;SDS011;58975;51.978;8.472;2023-08-06T07:44:13;3.55;;;2.22;;
4857;SDS011;58975;51.978;8.472;2023-08-06T07:49:09;3.55;;;1.67;;
4857;SDS011;58975;51.978;8.472;2023-08-06T07:54:07;3.42;;;2.17;;
4857;SDS011;58975;51.978;8.472;2023-08-06T07:59:03;2.08;;;1.77;;
4857;SDS011;58975;51.978;8.472;2023-08-06T08:04:00;2.50;;;1.67;;
4857;SDS011;58975;51.978;8.472;2023-08-06T08:08:56;2.25;;;1.77;;
4857;SDS011;58975;51.978;8.472;2023-08-06T08:13:53;3.58;;;1.58;;
4857;SDS011;58975;51.978;8.472;2023-08-06T08:18:49;2.25;;;1.40;;
4857;SDS011;58975;51.978;8.472;2023-08-06T08:23:46;1.20;;;1.08;;
4857;SDS011;58975;51.978;8.472;2023-08-06T08:28:43;3.10;;;1.25;;
4857;SDS011;58975;51.978;8.472;2023-08-06T08:33:39;2.28;;;1.35;;
4857;SDS011;58975;51.978;8.472;2023-08-06T08:38:36;1.40;;;1.08;;
4857;SDS011;58975;51.978;8.472;2023-08-06T08:43:32;1.60;;;1.33;;
4857;SDS011;58975;51.978;8.472;2023-08-06T08:48:29;1.50;;;1.38;;
4857;SDS011;58975;51.978;8.472;2023-08-06T08:53:26;1.97;;;1.27;;
4857;SDS011;58975;51.978;8.472;2023-08-06T08:58:22;1.40;;;1.20;;
4857;SDS011;58975;51.978;8.472;2023-08-06T09:03:20;4.78;;;1.40;;
4857;SDS011;58975;51.978;8.472;2023-08-06T09:08:17;3.00;;;1.20;;
4857;SDS011;58975;51.978;8.472;2023-08-06T09:13:15;2.22;;;1.65;;
4857;SDS011;58975;51.978;8.472;2023-08-06T09:18:12;2.38;;;1.33;;
4857;SDS011;58975;51.978;8.472;2023-08-06T09:23:10;3.30;;;1.60;;
4857;SDS011;58975;51.978;8.472;2023-08-06T09:28:06;2.15;;;1.35;;
4857;SDS011;58975;51.978;8.472;2023-08-06T09:33:03;2.15;;;1.17;;
4857;SDS011;58975;51.978;8.472;2023-08-06T09:38:07;3.03;;;1.33;;
4857;SDS011;58975;51.978;8.472;2023-08-06T09:43:06;2.53;;;1.35;;
4857;SDS011;58975;51.978;8.472;2023-08-06T09:48:03;2.22;;;1.50;;
4857;SDS011;58975;51.978;8.472;2023-08-06T09:53:02;1.30;;;1.20;;
4857;SDS011;58975;51.978;8.472;2023-08-06T09:58:00;1.80;;;1.40;;
4857;SDS011;58975;51.978;8.472;2023-08-06T10:03:00;1.67;;;1.33;;
4857;SDS011;58975;51.978;8.472;2023-08-06T10:07:57;1.27;;;1.17;;
4857;SDS011;58975;51.978;8.472;2023-08-06T10:12:56;1.60;;;1.50;;
4857;SDS011;58975;51.978;8.472;2023-08-06T10:17:55;6.53;;;1.20;;
4857;SDS011;58975;51.978;8.472;2023-08-06T10:23:03;1.90;;;1.15;;
4857;SDS011;58975;51.978;8.472;2023-08-06T10:28:11;1.63;;;1.02;;
4857;SDS011;58975;51.978;8.472;2023-08-06T10:33:11;1.15;;;0.85;;
4857;SDS011;58975;51.978;8.472;2023-08-06T10:38:08;3.13;;;1.00;;
4857;SDS011;58975;51.978;8.472;2023-08-06T10:43:07;0.90;;;0.60;;
4857;SDS011;58975;51.978;8.472;2023-08-06T10:48:30;0.70;;;0.70;;
4857;SDS011;58975;51.978;8.472;2023-08-06T10:53:27;0.95;;;0.85;;
4857;SDS011;58975;51.978;8.472;2023-08-06T10:58:34;2.35;;;0.82;;
4857;SDS011;58975;51.978;8.472;2023-08-06T11:03:31;0.90;;;0.90;;
4857;SDS011;58975;51.978;8.472;2023-08-06T11:08:32;3.05;;;1.05;;
4857;SDS011;58975;51.978;8.472;2023-08-06T11:13:30;2.78;;;1.20;;
4857;SDS011;58975;51.978;8.472;2023-08-06T11:18:28;1.48;;;0.85;;
4857;SDS011;58975;51.978;8.472;2023-08-06T11:23:26;1.90;;;1.10;;
4857;SDS011;58975;51.978;8.472;2023-08-06T11:28:24;0.95;;;0.95;;
4857;SDS011;58975;51.978;8.472;2023-08-06T11:33:21;1.00;;;0.85;;
4857;SDS011;58975;51.978;8.472;2023-08-06T11:38:18;3.20;;;1.10;;
4857;SDS011;58975;51.978;8.472;2023-08-06T11:43:15;6.32;;;1.20;;
4857;SDS011;58975;51.978;8.472;2023-08-06T11:48:12;1.13;;;1.02;;
4857;SDS011;58975;51.978;8.472;2023-08-06T11:53:11;1.58;;;1.48;;
4857;SDS011;58975;51.978;8.472;2023-08-06T11:58:09;1.83;;;1.00;;
4857;SDS011;58975;51.978;8.472;2023-08-06T12:03:07;2.38;;;1.00;;
4857;SDS011;58975;51.978;8.472;2023-08-06T12:08:06;1.88;;;1.13;;
4857;SDS011;58975;51.978;8.472;2023-08-06T12:13:05;1.30;;;1.20;;
4857;SDS011;58975;51.978;8.472;2023-08-06T12:18:01;2.88;;;1.02;;
4857;SDS011;58975;51.978;8.472;2023-08-06T12:22:58;1.67;;;0.90;;
4857;SDS011;58975;51.978;8.472;2023-08-06T12:27:54;3.10;;;1.10;;
4857;SDS011;58975;51.978;8.472;2023-08-06T12:32:51;1.10;;;0.93;;
4857;SDS011;58975;51.978;8.472;2023-08-06T12:37:48;1.92;;;0.98;;
4857;SDS011;58975;51.978;8.472;2023-08-06T12:42:44;1.13;;;1.00;;
4857;SDS011;58975;51.978;8.472;2023-08-06T12:47:40;1.38;;;1.00;;
4857;SDS011;58975;51.978;8.472;2023-08-06T12:52:37;2.55;;;1.08;;
4857;SDS011;58975;51.978;8.472;2023-08-06T12:57:33;0.70;;;0.70;;
4857;SDS011;58975;51.978;8.472;2023-08-06T13:02:50;1.20;;;1.10;;
4857;SDS011;58975;51.978;8.472;2023-08-06T13:07:47;2.63;;;1.10;;
4857;SDS011;58975;51.978;8.472;2023-08-06T13:12:44;1.17;;;1.08;;
4857;SDS011;58975;51.978;8.472;2023-08-06T13:17:40;1.92;;;1.10;;
4857;SDS011;58975;51.978;8.472;2023-08-06T13:22:37;5.20;;;1.60;;
4857;SDS011;58975;51.978;8.472;2023-08-06T13:27:33;2.55;;;1.05;;
4857;SDS011;58975;51.978;8.472;2023-08-06T13:32:30;1.30;;;1.20;;
4857;SDS011;58975;51.978;8.472;2023-08-06T13:37:26;12.02;;;2.33;;
4857;SDS011;58975;51.978;8.472;2023-08-06T13:42:23;7.57;;;2.03;;
4857;SDS011;58975;51.978;8.472;2023-08-06T13:47:19;7.15;;;2.10;;
4857;SDS011;58975;51.978;8.472;2023-08-06T13:52:16;3.47;;;1.45;;
4857;SDS011;58975;51.978;8.472;2023-08-06T13:57:17;1.70;;;1.52;;
4857;SDS011;58975;51.978;8.472;2023-08-06T14:02:14;4.60;;;1.85;;
4857;SDS011;58975;51.978;8.472;2023-08-06T14:07:10;3.45;;;1.70;;
4857;SDS011;58975;51.978;8.472;2023-08-06T14:12:07;6.00;;;1.73;;
4857;SDS011;58975;51.978;8.472;2023-08-06T14:17:03;4.30;;;1.70;;
4857;SDS011;58975;51.978;8.472;2023-08-06T14:22:00;3.13;;;1.80;;
4857;SDS011;58975;51.978;8.472;2023-08-06T14:26:57;2.30;;;1.33;;
4857;SDS011;58975;51.978;8.472;2023-08-06T14:31:53;1.95;;;1.60;;
4857;SDS011;58975;51.978;8.472;2023-08-06T14:36:50;0.80;;;0.80;;
4857;SDS011;58975;51.978;8.472;2023-08-06T14:41:46;2.60;;;1.10;;
4857;SDS011;58975;51.978;8.472;2023-08-06T14:46:43;3.05;;;1.00;;
4857;SDS011;58975;51.978;8.472;2023-08-06T14:51:39;1.67;;;1.15;;
4857;SDS011;58975;51.978;8.472;2023-08-06T14:56:36;1.60;;;1.20;;
4857;SDS011;58975;51.978;8.472;2023-08-06T15:01:32;1.70;;;1.60;;
4857;SDS011;58975;51.978;8.472;2023-08-06T15:06:29;2.97;;;1.60;;
4857;SDS011;58975;51.978;8.472;2023-08-06T15:11:25;1.63;;;1.52;;
4857;SDS011;58975;51.978;8.472;2023-08-06T15:16:22;5.07;;;1.70;;
4857;SDS011;58975;51.978;8.472;2023-08-06T15:21:18;3.75;;;2.35;;
4857;SDS011;58975;51.978;8.472;2023-08-06T15:26:15;2.83;;;1.60;;
4857;SDS011;58975;51.978;8.472;2023-08-06T15:31:11;2.85;;;1.60;;
4857;SDS011;58975;51.978;8.472;2023-08-06T15:36:08;2.60;;;1.42;;
4857;SDS011;58975;51.978;8.472;2023-08-06T15:41:04;1.85;;;1.70;;
4857;SDS011;58975;51.978;8.472;2023-08-06T15:46:01;3.53;;;1.85;;
4857;SDS011;58975;51.978;8.472;2023-08-06T15:50:57;4.45;;;2.05;;
4857;SDS011;58975;51.978;8.472;2023-08-06T15:55:54;6.03;;;2.67;;
4857;SDS011;58975;51.978;8.472;2023-08-06T16:00:50;6.22;;;2.90;;
4857;SDS011;58975;51.978;8.472;2023-08-06T16:05:46;5.75;;;2.65;;
4857;SDS011;58975;51.978;8.472;2023-08-06T16:10:43;5.47;;;2.63;;
4857;SDS011;58975;51.978;8.472;2023-08-06T16:20:41;3.75;;;2.38;;
4857;SDS011;58975;51.978;8.472;2023-08-06T16:25:39;2.83;;;2.50;;
4857;SDS011;58975;51.978;8.472;2023-08-06T16:30:44;4.28;;;2.60;;
4857;SDS011;58975;51.978;8.472;2023-08-06T16:35:42;2.70;;;2.50;;
4857;SDS011;58975;51.978;8.472;2023-08-06T16:40:38;4.90;;;2.45;;
4857;SDS011;58975;51.978;8.472;2023-08-06T16:45:38;3.05;;;2.20;;
4857;SDS011;58975;51.978;8.472;2023-08-06T16:50:34;2.33;;;1.25;;
4857;SDS011;58975;51.978;8.472;2023-08-06T16:55:33;1.63;;;1.52;;
4857;SDS011;58975;51.978;8.472;2023-08-06T17:00:29;1.70;;;1.60;;
4857;SDS011;58975;51.978;8.472;2023-08-06T17:05:26;2.15;;;1.35;;
4857;SDS011;58975;51.978;8.472;2023-08-06T17:10:22;2.00;;;1.80;;
4857;SDS011;58975;51.978;8.472;2023-08-06T17:15:19;2.83;;;1.63;;
4857;SDS011;58975;51.978;8.472;2023-08-06T17:25:13;3.42;;;2.60;;
4857;SDS011;58975;51.978;8.472;2023-08-06T17:30:10;3.33;;;2.40;;
4857;SDS011;58975;51.978;8.472;2023-08-06T17:35:06;6.30;;;2.50;;
4857;SDS011;58975;51.978;8.472;2023-08-06T17:40:03;3.08;;;2.75;;
4857;SDS011;58975;51.978;8.472;2023-08-06T17:45:00;6.47;;;3.15;;
4857;SDS011;58975;51.978;8.472;2023-08-06T17:49:56;4.65;;;2.42;;
4857;SDS011;58975;51.978;8.472;2023-08-06T17:54:52;4.65;;;2.72;;
4857;SDS011;58975;51.978;8.472;2023-08-06T17:59:49;4.03;;;2.65;;
4857;SDS011;58975;51.978;8.472;2023-08-06T18:04:45;3.65;;;2.95;;
4857;SDS011;58975;51.978;8.472;2023-08-06T18:09:42;3.85;;;2.85;;
4857;SDS011;58975;51.978;8.472;2023-08-06T18:14:38;5.05;;;3.00;;
4857;SDS011;58975;51.978;8.472;2023-08-06T18:19:35;4.70;;;2.75;;
4857;SDS011;58975;51.978;8.472;2023-08-06T18:24:32;4.80;;;3.67;;
4857;SDS011;58975;51.978;8.472;2023-08-06T18:29:28;3.78;;;2.45;;
4857;SDS011;58975;51.978;8.472;2023-08-06T18:34:24;4.50;;;2.70;;
4857;SDS011;58975;51.978;8.472;2023-08-06T18:39:21;2.85;;;2.55;;
4857;SDS011;58975;51.978;8.472;2023-08-06T18:44:17;2.92;;;2.67;;
4857;SDS011;58975;51.978;8.472;2023-08-06T18:49:14;5.10;;;2.97;;
4857;SDS011;58975;51.978;8.472;2023-08-06T18:54:11;2.92;;;2.42;;
4857;SDS011;58975;51.978;8.472;2023-08-06T18:59:07;2.97;;;2.67;;
4857;SDS011;58975;51.978;8.472;2023-08-06T19:04:03;3.60;;;2.35;;
4857;SDS011;58975;51.978;8.472;2023-08-06T19:09:00;3.38;;;3.08;;
4857;SDS011;58975;51.978;8.472;2023-08-06T19:13:56;3.35;;;2.92;;
4857;SDS011;58975;51.978;8.472;2023-08-06T19:18:53;4.28;;;3.13;;
4857;SDS011;58975;51.978;8.472;2023-08-06T19:23:49;5.03;;;3.95;;
4857;SDS011;58975;51.978;8.472;2023-08-06T19:28:45;4.65;;;3.10;;
4857;SDS011;58975;51.978;8.472;2023-08-06T19:33:42;4.82;;;3.35;;
4857;SDS011;58975;51.978;8.472;2023-08-06T19:38:38;4.85;;;4.18;;
4857;SDS011;58975;51.978;8.472;2023-08-06T19:43:35;5.10;;;4.22;;
4857;SDS011;58975;51.978;8.472;2023-08-06T19:48:32;7.80;;;5.13;;
4857;SDS011;58975;51.978;8.472;2023-08-06T19:53:32;10.55;;;7.10;;
4857;SDS011;58975;51.978;8.472;2023-08-06T19:58:31;8.88;;;7.32;;
4857;SDS011;58975;51.978;8.472;2023-08-06T20:03:28;11.10;;;7.18;;
4857;SDS011;58975;51.978;8.472;2023-08-06T20:08:28;11.85;;;7.70;;
4857;SDS011;58975;51.978;8.472;2023-08-06T20:13:25;14.93;;;9.65;;
4857;SDS011;58975;51.978;8.472;2023-08-06T20:18:21;11.50;;;9.15;;
4857;SDS011;58975;51.978;8.472;2023-08-06T20:23:22;11.90;;;9.15;;
4857;SDS011;58975;51.978;8.472;2023-08-06T20:28:23;12.43;;;9.07;;
4857;SDS011;58975;51.978;8.472;2023-08-06T20:33:20;13.65;;;9.35;;
4857;SDS011;58975;51.978;8.472;2023-08-06T20:38:17;11.57;;;8.50;;
4857;SDS011;58975;51.978;8.472;2023-08-06T20:43:15;14.82;;;8.38;;
4857;SDS011;58975;51.978;8.472;2023-08-06T20:48:11;10.35;;;7.00;;
4857;SDS011;58975;51.978;8.472;2023-08-06T20:53:07;10.10;;;6.40;;
4857;SDS011;58975;51.978;8.472;2023-08-06T20:58:04;11.93;;;6.10;;
4857;SDS011;58975;51.978;8.472;2023-08-06T21:03:02;9.93;;;5.35;;
4857;SDS011;58975;51.978;8.472;2023-08-06T21:07:58;7.95;;;5.05;;
4857;SDS011;58975;51.978;8.472;2023-08-06T21:12:55;10.57;;;5.20;;
4857;SDS011;58975;51.978;8.472;2023-08-06T21:17:51;10.60;;;5.30;;
4857;SDS011;58975;51.978;8.472;2023-08-06T21:22:48;15.07;;;4.53;;
4857;SDS011;58975;51.978;8.472;2023-08-06T21:27:44;8.27;;;4.43;;
4857;SDS011;58975;51.978;8.472;2023-08-06T21:32:43;8.07;;;2.75;;
4857;SDS011;58975;51.978;8.472;2023-08-06T21:37:40;8.88;;;2.70;;
4857;SDS011;58975;51.978;8.472;2023-08-06T21:42:36;12.65;;;2.55;;
4857;SDS011;58975;51.978;8.472;2023-08-06T21:47:33;6.03;;;2.63;;
4857;SDS011;58975;51.978;8.472;2023-08-06T21:52:29;5.68;;;2.63;;
4857;SDS011;58975;51.978;8.472;2023-08-06T21:57:25;3.90;;;1.75;;
4857;SDS011;58975;51.978;8.472;2023-08-06T22:02:22;8.70;;;3.17;;
4857;SDS011;58975;51.978;8.472;2023-08-06T22:07:18;10.63;;;3.15;;
4857;SDS011;58975;51.978;8.472;2023-08-06T22:12:15;8.65;;;2.45;;
4857;SDS011;58975;51.978;8.472;2023-08-06T22:17:11;7.72;;;2.55;;
4857;SDS011;58975;51.978;8.472;2023-08-06T22:22:08;6.45;;;1.90;;
4857;SDS011;58975;51.978;8.472;2023-08-06T22:27:04;6.15;;;1.95;;
4857;SDS011;58975;51.978;8.472;2023-08-06T22:32:01;10.52;;;2.35;;
4857;SDS011;58975;51.978;8.472;2023-08-06T22:36:57;3.80;;;2.15;;
4857;SDS011;58975;51.978;8.472;2023-08-06T22:41:54;5.05;;;1.92;;
4857;SDS011;58975;51.978;8.472;2023-08-06T22:46:50;8.90;;;2.40;;
4857;SDS011;58975;51.978;8.472;2023-08-06T22:51:47;4.15;;;2.05;;
4857;SDS011;58975;51.978;8.472;2023-08-06T22:56:43;4.45;;;1.83;;
4857;SDS011;58975;51.978;8.472;2023-08-06T23:01:40;6.35;;;1.92;;
4857;SDS011;58975;51.978;8.472;2023-08-06T23:06:36;7.20;;;1.90;;
4857;SDS011;58975;51.978;8.472;2023-08-06T23:11:33;5.15;;;2.58;;
4857;SDS011;58975;51.978;8.472;2023-08-06T23:16:30;5.47;;;1.77;;
4857;SDS011;58975;51.978;8.472;2023-08-06T23:21:26;10.23;;;1.95;;
4857;SDS011;58975;51.978;8.472;2023-08-06T23:26:23;10.38;;;1.98;;
4857;SDS011;58975;51.978;8.472;2023-08-06T23:31:19;7.60;;;2.00;;
4857;SDS011;58975;51.978;8.472;2023-08-06T23:36:16;7.32;;;2.00;;
4857;SDS011;58975;51.978;8.472;2023-08-06T23:41:13;3.55;;;1.90;;
4857;SDS011;58975;51.978;8.472;2023-08-06T23:46:09;9.30;;;2.42;;
4857;SDS011;58975;51.978;8.472;2023-08-06T23:51:05;6.10;;;1.73;;
4857;SDS011;58975;51.978;8.472;2023-08-06T23:56:02;9.45;;;1.88;;
